sensor_id;sensor_type;location;lat;lon;timestamp;pressure;altitude;pressure_sealevel;temperature;humidity
79415;BME280;68864;44.972;19.612;2023-10-19T00:01:47;100353.28;;;12.22;67.77
79415;BME280;68864;44.972;19.612;2023-10-19T00:04:14;100351.59;;;12.17;68.31
79415;BME280;68864;44.972;19.612;2023-10-19T00:06:42;100352.75;;;12.13;68.97
79415;BME280;68864;44.972;19.612;2023-10-19T00:09:10;100342.84;;;12.19;68.43
79415;BME280;68864;44.972;19.612;2023-10-19T00:11:39;100357.69;;;12.23;68.19
79415;BME280;68864;44.972;19.612;2023-10-19T00:14:06;100351.31;;;12.26;67.88
79415;BME280;68864;44.972;19.612;2023-10-19T00:16:41;100338.91;;;12.23;67.89
79415;BME280;68864;44.972;19.612;2023-10-19T00:19:09;100340.91;;;12.23;67.88
79415;BME280;68864;44.972;19.612;2023-10-19T00:21:36;100346.53;;;12.26;67.75
79415;BME280;68864;44.972;19.612;2023-10-19T00:24:16;100323.81;;;12.28;68.04
79415;BME280;68864;44.972;19.612;2023-10-19T00:26:46;100329.03;;;12.29;68.00
79415;BME280;68864;44.972;19.612;2023-10-19T00:29:13;100317.50;;;12.34;67.78
79415;BME280;68864;44.972;19.612;2023-10-19T00:31:56;100309.47;;;12.29;68.17
79415;BME280;68864;44.972;19.612;2023-10-19T00:34:23;100314.19;;;12.25;68.25
79415;BME280;68864;44.972;19.612;2023-10-19T00:36:50;100315.78;;;12.23;68.69
79415;BME280;68864;44.972;19.612;2023-10-19T00:39:18;100306.66;;;12.29;68.09
79415;BME280;68864;44.972;19.612;2023-10-19T00:41:49;100308.66;;;12.29;68.27
79415;BME280;68864;44.972;19.612;2023-10-19T00:44:18;100291.47;;;12.30;68.32
79415;BME280;68864;44.972;19.612;2023-10-19T00:46:57;100294.19;;;12.23;68.60
79415;BME280;68864;44.972;19.612;2023-10-19T00:49:29;100299.00;;;12.23;68.39
79415;BME280;68864;44.972;19.612;2023-10-19T00:51:58;100292.25;;;12.27;68.74
79415;BME280;68864;44.972;19.612;2023-10-19T00:54:30;100289.56;;;12.34;68.11
79415;BME280;68864;44.972;19.612;2023-10-19T00:57:03;100286.38;;;12.36;68.35
79415;BME280;68864;44.972;19.612;2023-10-19T00:59:34;100278.03;;;12.43;68.17
79415;BME280;68864;44.972;19.612;2023-10-19T01:02:04;100276.47;;;12.46;68.04
79415;BME280;68864;44.972;19.612;2023-10-19T01:04:43;100278.41;;;12.38;69.01
79415;BME280;68864;44.972;19.612;2023-10-19T01:07:12;100265.59;;;12.37;68.73
79415;BME280;68864;44.972;19.612;2023-10-19T01:09:42;100268.81;;;12.39;69.16
79415;BME280;68864;44.972;19.612;2023-10-19T01:12:10;100267.28;;;12.42;68.58
79415;BME280;68864;44.972;19.612;2023-10-19T01:15:08;100268.81;;;12.36;69.58
79415;BME280;68864;44.972;19.612;2023-10-19T01:17:39;100263.25;;;12.39;68.51
79415;BME280;68864;44.972;19.612;2023-10-19T01:20:10;100251.25;;;12.39;69.12
79415;BME280;68864;44.972;19.612;2023-10-19T01:22:51;100256.84;;;12.39;69.43
79415;BME280;68864;44.972;19.612;2023-10-19T01:25:32;100266.47;;;12.41;68.52
79415;BME280;68864;44.972;19.612;2023-10-19T01:28:06;100239.19;;;12.31;68.65
79415;BME280;68864;44.972;19.612;2023-10-19T01:30:33;100270.50;;;12.47;68.81
79415;BME280;68864;44.972;19.612;2023-10-19T01:33:01;100272.16;;;12.52;68.32
79415;BME280;68864;44.972;19.612;2023-10-19T01:35:29;100274.56;;;12.53;68.52
79415;BME280;68864;44.972;19.612;2023-10-19T01:38:18;100277.38;;;12.53;68.48
79415;BME280;68864;44.972;19.612;2023-10-19T01:40:44;100275.41;;;12.57;68.29
79415;BME280;68864;44.972;19.612;2023-10-19T01:43:14;100279.81;;;12.58;67.89
79415;BME280;68864;44.972;19.612;2023-10-19T01:45:46;100291.44;;;12.64;68.12
79415;BME280;68864;44.972;19.612;2023-10-19T01:48:13;100298.28;;;12.70;68.21
79415;BME280;68864;44.972;19.612;2023-10-19T01:50:40;100289.94;;;12.73;68.36
79415;BME280;68864;44.972;19.612;2023-10-19T01:53:07;100298.66;;;12.65;69.94
79415;BME280;68864;44.972;19.612;2023-10-19T01:55:42;100301.13;;;12.73;68.92
79415;BME280;68864;44.972;19.612;2023-10-19T01:58:09;100291.97;;;12.77;68.47
79415;BME280;68864;44.972;19.612;2023-10-19T02:00:35;100301.97;;;12.78;69.00
79415;BME280;68864;44.972;19.612;2023-10-19T02:03:08;100290.78;;;12.78;69.10
79415;BME280;68864;44.972;19.612;2023-10-19T02:05:34;100294.81;;;12.80;69.48
79415;BME280;68864;44.972;19.612;2023-10-19T02:08:07;100294.31;;;12.71;70.24
79415;BME280;68864;44.972;19.612;2023-10-19T02:10:33;100296.72;;;12.69;69.94
79415;BME280;68864;44.972;19.612;2023-10-19T02:13:03;100289.50;;;12.68;70.99
79415;BME280;68864;44.972;19.612;2023-10-19T02:15:33;100275.91;;;12.66;70.83
79415;BME280;68864;44.972;19.612;2023-10-19T02:18:01;100278.69;;;12.66;70.61
79415;BME280;68864;44.972;19.612;2023-10-19T02:20:28;100274.59;;;12.57;71.51
79415;BME280;68864;44.972;19.612;2023-10-19T02:22:56;100242.94;;;12.46;71.52
79415;BME280;68864;44.972;19.612;2023-10-19T02:25:23;100255.88;;;12.61;72.30
79415;BME280;68864;44.972;19.612;2023-10-19T02:27:53;100253.38;;;12.52;73.20
79415;BME280;68864;44.972;19.612;2023-10-19T02:30:20;100242.69;;;12.61;72.54
79415;BME280;68864;44.972;19.612;2023-10-19T02:32:50;100218.69;;;12.57;72.55
79415;BME280;68864;44.972;19.612;2023-10-19T02:35:16;100215.41;;;12.48;73.19
79415;BME280;68864;44.972;19.612;2023-10-19T02:37:44;100208.22;;;12.50;73.21
79415;BME280;68864;44.972;19.612;2023-10-19T02:40:11;100202.25;;;12.52;72.53
79415;BME280;68864;44.972;19.612;2023-10-19T02:42:45;100198.25;;;12.49;73.27
79415;BME280;68864;44.972;19.612;2023-10-19T02:45:13;100197.84;;;12.51;73.92
79415;BME280;68864;44.972;19.612;2023-10-19T02:47:44;100189.84;;;12.46;73.98
79415;BME280;68864;44.972;19.612;2023-10-19T02:50:10;100178.66;;;12.46;74.15
79415;BME280;68864;44.972;19.612;2023-10-19T02:52:41;100183.00;;;12.43;73.71
79415;BME280;68864;44.972;19.612;2023-10-19T02:55:07;100177.03;;;12.41;74.28
79415;BME280;68864;44.972;19.612;2023-10-19T02:57:36;100161.00;;;12.38;75.01
79415;BME280;68864;44.972;19.612;2023-10-19T03:00:05;100166.59;;;12.38;74.96
79415;BME280;68864;44.972;19.612;2023-10-19T03:02:36;100163.38;;;12.32;75.07
79415;BME280;68864;44.972;19.612;2023-10-19T03:05:04;100163.66;;;12.24;75.40
79415;BME280;68864;44.972;19.612;2023-10-19T03:07:39;100176.06;;;12.23;75.36
79415;BME280;68864;44.972;19.612;2023-10-19T03:10:06;100164.88;;;12.23;75.52
79415;BME280;68864;44.972;19.612;2023-10-19T03:12:33;100169.66;;;12.22;75.29
79415;BME280;68864;44.972;19.612;2023-10-19T03:14:59;100160.88;;;12.24;75.79
79415;BME280;68864;44.972;19.612;2023-10-19T03:17:27;100165.72;;;12.27;75.64
79415;BME280;68864;44.972;19.612;2023-10-19T03:19:55;100164.91;;;12.30;75.78
79415;BME280;68864;44.972;19.612;2023-10-19T03:22:23;100166.94;;;12.29;76.24
79415;BME280;68864;44.972;19.612;2023-10-19T03:24:53;100166.16;;;12.32;76.28
79415;BME280;68864;44.972;19.612;2023-10-19T03:27:36;100169.31;;;12.27;76.32
79415;BME280;68864;44.972;19.612;2023-10-19T03:30:04;100173.66;;;12.25;77.04
79415;BME280;68864;44.972;19.612;2023-10-19T03:32:31;100169.63;;;12.19;77.20
79415;BME280;68864;44.972;19.612;2023-10-19T03:35:00;100177.19;;;12.18;77.44
79415;BME280;68864;44.972;19.612;2023-10-19T03:37:31;100166.44;;;12.20;77.14
79415;BME280;68864;44.972;19.612;2023-10-19T03:40:00;100167.94;;;12.11;77.55
79415;BME280;68864;44.972;19.612;2023-10-19T03:42:32;100174.31;;;12.08;77.95
79415;BME280;68864;44.972;19.612;2023-10-19T03:45:06;100173.94;;;12.09;78.06
79415;BME280;68864;44.972;19.612;2023-10-19T03:47:38;100165.94;;;12.08;78.44
79415;BME280;68864;44.972;19.612;2023-10-19T03:50:05;100183.50;;;12.08;78.48
79415;BME280;68864;44.972;19.612;2023-10-19T03:52:35;100176.31;;;12.11;78.82
79415;BME280;68864;44.972;19.612;2023-10-19T03:55:03;100151.38;;;11.91;78.40
79415;BME280;68864;44.972;19.612;2023-10-19T03:57:31;100162.28;;;12.04;79.19
79415;BME280;68864;44.972;19.612;2023-10-19T04:00:00;100162.34;;;12.11;79.02
79415;BME280;68864;44.972;19.612;2023-10-19T04:02:28;100155.13;;;12.06;79.11
79415;BME280;68864;44.972;19.612;2023-10-19T04:05:00;100155.84;;;12.00;79.12
79415;BME280;68864;44.972;19.612;2023-10-19T04:07:29;100143.06;;;11.99;79.45
79415;BME280;68864;44.972;19.612;2023-10-19T04:09:58;100145.91;;;12.02;79.32
79415;BME280;68864;44.972;19.612;2023-10-19T04:12:35;100141.47;;;11.98;79.08
79415;BME280;68864;44.972;19.612;2023-10-19T04:15:05;100134.25;;;11.93;79.71
79415;BME280;68864;44.972;19.612;2023-10-19T04:17:38;100137.03;;;11.93;79.30
79415;BME280;68864;44.972;19.612;2023-10-19T04:20:06;100125.91;;;11.97;79.41
79415;BME280;68864;44.972;19.612;2023-10-19T04:22:51;100125.91;;;11.97;79.39
79415;BME280;68864;44.972;19.612;2023-10-19T04:25:20;100129.38;;;11.83;79.80
79415;BME280;68864;44.972;19.612;2023-10-19T04:27:50;100107.06;;;11.86;78.97
79415;BME280;68864;44.972;19.612;2023-10-19T04:30:17;100121.84;;;11.90;78.89
79415;BME280;68864;44.972;19.612;2023-10-19T04:32:48;100117.13;;;11.94;78.38
79415;BME280;68864;44.972;19.612;2023-10-19T04:35:16;100117.13;;;11.98;78.22
79415;BME280;68864;44.972;19.612;2023-10-19T04:37:48;100119.91;;;11.94;78.08
79415;BME280;68864;44.972;19.612;2023-10-19T04:40:15;100112.78;;;12.01;77.45
79415;BME280;68864;44.972;19.612;2023-10-19T04:42:44;100104.63;;;11.85;78.10
79415;BME280;68864;44.972;19.612;2023-10-19T04:45:11;100093.50;;;11.88;77.94
79415;BME280;68864;44.972;19.612;2023-10-19T04:47:39;100106.38;;;11.97;77.97
79415;BME280;68864;44.972;19.612;2023-10-19T04:50:06;100115.94;;;11.99;78.39
79415;BME280;68864;44.972;19.612;2023-10-19T04:52:36;100121.53;;;11.99;78.06
79415;BME280;68864;44.972;19.612;2023-10-19T04:55:04;100126.75;;;12.01;77.64
79415;BME280;68864;44.972;19.612;2023-10-19T04:57:31;100129.53;;;12.01;78.21
79415;BME280;68864;44.972;19.612;2023-10-19T04:59:59;100128.72;;;12.00;78.73
79415;BME280;68864;44.972;19.612;2023-10-19T05:02:26;100127.13;;;11.99;77.89
79415;BME280;68864;44.972;19.612;2023-10-19T05:04:53;100120.81;;;12.06;78.26
79415;BME280;68864;44.972;19.612;2023-10-19T05:07:19;100121.97;;;12.05;77.85
79415;BME280;68864;44.972;19.612;2023-10-19T05:09:46;100130.38;;;12.05;78.63
79415;BME280;68864;44.972;19.612;2023-10-19T05:12:14;100140.34;;;12.02;78.34
79415;BME280;68864;44.972;19.612;2023-10-19T05:14:41;100148.59;;;11.91;80.42
79415;BME280;68864;44.972;19.612;2023-10-19T05:17:10;100149.03;;;11.97;79.94
79415;BME280;68864;44.972;19.612;2023-10-19T05:19:38;100141.50;;;12.01;79.42
79415;BME280;68864;44.972;19.612;2023-10-19T05:22:07;100140.78;;;12.08;78.91
79415;BME280;68864;44.972;19.612;2023-10-19T05:24:34;100151.97;;;12.08;79.26
79415;BME280;68864;44.972;19.612;2023-10-19T05:27:01;100145.47;;;11.97;80.95
79415;BME280;68864;44.972;19.612;2023-10-19T05:29:28;100143.94;;;12.03;79.33
79415;BME280;68864;44.972;19.612;2023-10-19T05:31:54;100145.59;;;12.11;79.70
79415;BME280;68864;44.972;19.612;2023-10-19T05:34:25;100146.38;;;12.08;80.06
79415;BME280;68864;44.972;19.612;2023-10-19T05:36:52;100151.25;;;12.18;79.26
79415;BME280;68864;44.972;19.612;2023-10-19T05:39:19;100153.72;;;12.23;79.54
79415;BME280;68864;44.972;19.612;2023-10-19T05:41:53;100148.94;;;12.27;78.96
79415;BME280;68864;44.972;19.612;2023-10-19T05:44:19;100154.47;;;12.23;79.17
79415;BME280;68864;44.972;19.612;2023-10-19T05:46:46;100160.06;;;12.20;79.48
79415;BME280;68864;44.972;19.612;2023-10-19T05:49:13;100164.81;;;12.16;79.77
79415;BME280;68864;44.972;19.612;2023-10-19T05:51:43;100147.97;;;12.09;81.02
79415;BME280;68864;44.972;19.612;2023-10-19T05:54:10;100146.38;;;12.11;81.56
79415;BME280;68864;44.972;19.612;2023-10-19T05:56:37;100144.03;;;12.17;80.65
79415;BME280;68864;44.972;19.612;2023-10-19T05:59:05;100124.09;;;12.15;81.32
79415;BME280;68864;44.972;19.612;2023-10-19T06:01:32;100123.22;;;12.07;82.21
79415;BME280;68864;44.972;19.612;2023-10-19T06:03:59;100124.84;;;12.12;81.79
79415;BME280;68864;44.972;19.612;2023-10-19T06:06:26;100119.19;;;12.05;82.49
79415;BME280;68864;44.972;19.612;2023-10-19T06:08:54;100120.38;;;12.04;82.66
79415;BME280;68864;44.972;19.612;2023-10-19T06:11:21;100088.38;;;11.94;81.81
79415;BME280;68864;44.972;19.612;2023-10-19T06:13:48;100100.13;;;12.14;82.06
79415;BME280;68864;44.972;19.612;2023-10-19T06:16:15;100095.41;;;12.21;81.11
79415;BME280;68864;44.972;19.612;2023-10-19T06:18:43;100101.03;;;12.25;80.89
79415;BME280;68864;44.972;19.612;2023-10-19T06:21:10;100109.03;;;12.30;81.44
79415;BME280;68864;44.972;19.612;2023-10-19T06:23:37;100110.31;;;12.36;80.88
79415;BME280;68864;44.972;19.612;2023-10-19T06:26:10;100115.50;;;12.38;80.90
79415;BME280;68864;44.972;19.612;2023-10-19T06:28:38;100119.16;;;12.45;80.70
79415;BME280;68864;44.972;19.612;2023-10-19T06:31:06;100117.69;;;12.62;80.01
79415;BME280;68864;44.972;19.612;2023-10-19T06:33:34;100122.22;;;12.81;78.92
79415;BME280;68864;44.972;19.612;2023-10-19T06:36:02;100135.09;;;12.99;78.49
79415;BME280;68864;44.972;19.612;2023-10-19T06:38:29;100128.47;;;13.22;77.71
79415;BME280;68864;44.972;19.612;2023-10-19T06:40:56;100118.00;;;13.11;77.86
79415;BME280;68864;44.972;19.612;2023-10-19T06:43:25;100116.47;;;13.25;77.22
79415;BME280;68864;44.972;19.612;2023-10-19T06:45:56;100113.69;;;13.21;77.46
79415;BME280;68864;44.972;19.612;2023-10-19T06:48:22;100096.16;;;13.35;77.31
79415;BME280;68864;44.972;19.612;2023-10-19T06:50:49;100084.59;;;13.50;76.32
79415;BME280;68864;44.972;19.612;2023-10-19T06:53:16;100079.47;;;13.84;74.86
79415;BME280;68864;44.972;19.612;2023-10-19T06:55:43;100091.97;;;15.73;68.23
79415;BME280;68864;44.972;19.612;2023-10-19T06:58:10;100096.13;;;15.40;68.48
79415;BME280;68864;44.972;19.612;2023-10-19T07:00:39;100103.41;;;15.24;69.57
79415;BME280;68864;44.972;19.612;2023-10-19T07:03:07;100105.81;;;15.25;69.75
79415;BME280;68864;44.972;19.612;2023-10-19T07:05:35;100102.56;;;15.41;69.28
79415;BME280;68864;44.972;19.612;2023-10-19T07:08:02;100108.09;;;15.51;68.77
79415;BME280;68864;44.972;19.612;2023-10-19T07:10:32;100089.84;;;16.47;65.82
79415;BME280;68864;44.972;19.612;2023-10-19T07:13:00;100101.84;;;17.29;62.87
79415;BME280;68864;44.972;19.612;2023-10-19T07:15:27;100094.59;;;18.19;60.46
79415;BME280;68864;44.972;19.612;2023-10-19T07:17:56;100083.44;;;19.25;56.90
79415;BME280;68864;44.972;19.612;2023-10-19T07:20:23;100088.66;;;19.27;56.78
79415;BME280;68864;44.972;19.612;2023-10-19T07:22:55;100093.53;;;19.66;55.90
79415;BME280;68864;44.972;19.612;2023-10-19T07:25:22;100071.81;;;19.79;54.59
79415;BME280;68864;44.972;19.612;2023-10-19T07:27:51;100055.16;;;20.01;53.39
79415;BME280;68864;44.972;19.612;2023-10-19T07:30:18;100054.66;;;20.83;52.54
79415;BME280;68864;44.972;19.612;2023-10-19T07:32:48;100045.22;;;20.74;51.42
79415;BME280;68864;44.972;19.612;2023-10-19T07:35:21;100052.88;;;20.60;51.82
79415;BME280;68864;44.972;19.612;2023-10-19T07:37:51;100047.03;;;21.25;51.19
79415;BME280;68864;44.972;19.612;2023-10-19T07:40:18;100037.34;;;21.64;50.04
79415;BME280;68864;44.972;19.612;2023-10-19T07:42:45;100034.06;;;23.32;45.64
79415;BME280;68864;44.972;19.612;2023-10-19T07:45:13;100035.19;;;26.06;39.17
79415;BME280;68864;44.972;19.612;2023-10-19T07:47:42;100015.19;;;28.95;33.40
79415;BME280;68864;44.972;19.612;2023-10-19T07:50:10;100007.91;;;30.02;30.32
79415;BME280;68864;44.972;19.612;2023-10-19T07:52:42;100005.16;;;31.66;28.72
79415;BME280;68864;44.972;19.612;2023-10-19T07:55:10;100006.84;;;32.58;27.14
79415;BME280;68864;44.972;19.612;2023-10-19T07:57:37;100014.94;;;33.69;25.98
79415;BME280;68864;44.972;19.612;2023-10-19T08:00:07;100009.88;;;34.84;24.23
79415;BME280;68864;44.972;19.612;2023-10-19T08:02:35;100007.81;;;35.72;22.35
79415;BME280;68864;44.972;19.612;2023-10-19T08:05:03;99997.91;;;36.26;21.94
79415;BME280;68864;44.972;19.612;2023-10-19T08:07:32;99975.19;;;36.90;21.62
79415;BME280;68864;44.972;19.612;2023-10-19T08:10:01;99976.44;;;35.20;22.09
79415;BME280;68864;44.972;19.612;2023-10-19T08:12:28;99976.13;;;36.46;21.55
79415;BME280;68864;44.972;19.612;2023-10-19T08:14:56;99979.25;;;36.21;21.58
79415;BME280;68864;44.972;19.612;2023-10-19T08:17:23;99970.75;;;34.96;23.41
79415;BME280;68864;44.972;19.612;2023-10-19T08:19:50;99965.06;;;36.44;21.70
79415;BME280;68864;44.972;19.612;2023-10-19T08:22:16;99960.16;;;36.66;21.19
79415;BME280;68864;44.972;19.612;2023-10-19T08:24:44;99962.22;;;35.99;22.08
79415;BME280;68864;44.972;19.612;2023-10-19T08:27:13;99970.34;;;35.74;21.84
79415;BME280;68864;44.972;19.612;2023-10-19T08:29:39;99959.03;;;36.16;21.89
79415;BME280;68864;44.972;19.612;2023-10-19T08:32:06;99956.06;;;38.33;20.05
79415;BME280;68864;44.972;19.612;2023-10-19T08:34:34;99948.69;;;37.41;20.24
79415;BME280;68864;44.972;19.612;2023-10-19T08:37:01;99958.25;;;37.49;20.44
79415;BME280;68864;44.972;19.612;2023-10-19T08:39:30;99957.13;;;38.14;19.80
79415;BME280;68864;44.972;19.612;2023-10-19T08:42:02;99937.03;;;36.73;21.06
79415;BME280;68864;44.972;19.612;2023-10-19T08:44:31;99962.69;;;36.95;20.73
79415;BME280;68864;44.972;19.612;2023-10-19T08:46:58;99965.25;;;37.33;20.63
79415;BME280;68864;44.972;19.612;2023-10-19T08:49:25;99973.66;;;37.99;20.09
79415;BME280;68864;44.972;19.612;2023-10-19T08:51:53;99953.78;;;37.48;20.46
79415;BME280;68864;44.972;19.612;2023-10-19T08:54:20;99946.16;;;37.58;20.16
79415;BME280;68864;44.972;19.612;2023-10-19T08:56:48;99945.44;;;37.65;19.83
79415;BME280;68864;44.972;19.612;2023-10-19T08:59:14;99942.97;;;37.15;20.66
79415;BME280;68864;44.972;19.612;2023-10-19T09:01:44;99930.22;;;37.18;20.69
79415;BME280;68864;44.972;19.612;2023-10-19T09:04:11;99932.84;;;36.95;21.03
79415;BME280;68864;44.972;19.612;2023-10-19T09:06:38;99920.72;;;37.79;19.93
79415;BME280;68864;44.972;19.612;2023-10-19T09:09:08;99897.16;;;36.74;21.41
79415;BME280;68864;44.972;19.612;2023-10-19T09:11:42;99897.56;;;36.78;21.04
79415;BME280;68864;44.972;19.612;2023-10-19T09:14:09;99895.28;;;36.23;21.59
79415;BME280;68864;44.972;19.612;2023-10-19T09:16:38;99895.09;;;34.43;23.49
79415;BME280;68864;44.972;19.612;2023-10-19T09:19:07;99891.84;;;33.20;25.76
79415;BME280;68864;44.972;19.612;2023-10-19T09:21:33;99888.47;;;30.55;30.04
79415;BME280;68864;44.972;19.612;2023-10-19T09:24:00;99889.41;;;29.45;31.70
79415;BME280;68864;44.972;19.612;2023-10-19T09:26:28;99893.59;;;29.18;32.75
79415;BME280;68864;44.972;19.612;2023-10-19T09:28:54;99907.34;;;27.66;35.46
79415;BME280;68864;44.972;19.612;2023-10-19T09:31:21;99904.94;;;27.80;35.05
79415;BME280;68864;44.972;19.612;2023-10-19T09:33:49;99895.81;;;26.73;36.74
79415;BME280;68864;44.972;19.612;2023-10-19T09:36:20;99891.34;;;25.29;40.63
79415;BME280;68864;44.972;19.612;2023-10-19T09:38:49;99904.75;;;24.77;41.29
79415;BME280;68864;44.972;19.612;2023-10-19T09:41:18;99914.59;;;23.63;44.26
79415;BME280;68864;44.972;19.612;2023-10-19T09:43:47;99923.41;;;23.25;45.28
79415;BME280;68864;44.972;19.612;2023-10-19T09:46:21;99925.69;;;23.09;46.36
79415;BME280;68864;44.972;19.612;2023-10-19T09:48:48;99920.31;;;22.80;46.96
79415;BME280;68864;44.972;19.612;2023-10-19T09:51:17;99884.59;;;22.57;47.29
79415;BME280;68864;44.972;19.612;2023-10-19T09:53:48;99906.84;;;22.80;47.40
79415;BME280;68864;44.972;19.612;2023-10-19T09:56:20;99898.66;;;22.39;48.67
79415;BME280;68864;44.972;19.612;2023-10-19T09:58:51;99897.16;;;22.47;48.85
79415;BME280;68864;44.972;19.612;2023-10-19T10:01:19;99881.28;;;22.80;47.41
79415;BME280;68864;44.972;19.612;2023-10-19T10:03:49;99876.84;;;22.57;48.63
79415;BME280;68864;44.972;19.612;2023-10-19T10:06:17;99872.56;;;22.31;49.55
79415;BME280;68864;44.972;19.612;2023-10-19T10:08:55;99855.41;;;22.78;48.52
79415;BME280;68864;44.972;19.612;2023-10-19T10:11:24;99839.13;;;23.10;47.04
79415;BME280;68864;44.972;19.612;2023-10-19T10:13:52;99844.41;;;22.89;47.57
79415;BME280;68864;44.972;19.612;2023-10-19T10:16:22;99840.28;;;22.59;48.49
79415;BME280;68864;44.972;19.612;2023-10-19T10:18:50;99851.44;;;22.76;47.88
79415;BME280;68864;44.972;19.612;2023-10-19T10:21:19;99829.28;;;22.92;47.35
79415;BME280;68864;44.972;19.612;2023-10-19T10:23:48;99827.44;;;22.77;47.49
79415;BME280;68864;44.972;19.612;2023-10-19T10:26:17;99807.56;;;22.77;47.60
79415;BME280;68864;44.972;19.612;2023-10-19T10:28:48;99826.84;;;22.82;47.39
79415;BME280;68864;44.972;19.612;2023-10-19T10:31:19;99814.69;;;22.81;47.54
79415;BME280;68864;44.972;19.612;2023-10-19T10:33:48;99819.63;;;22.90;47.19
79415;BME280;68864;44.972;19.612;2023-10-19T10:36:17;99816.13;;;22.86;47.47
79415;BME280;68864;44.972;19.612;2023-10-19T10:38:45;99827.97;;;22.84;47.47
79415;BME280;68864;44.972;19.612;2023-10-19T10:41:21;99815.34;;;22.64;48.30
79415;BME280;68864;44.972;19.612;2023-10-19T10:43:49;99812.16;;;22.62;48.36
79415;BME280;68864;44.972;19.612;2023-10-19T10:46:18;99814.44;;;22.45;48.57
79415;BME280;68864;44.972;19.612;2023-10-19T10:48:46;99798.91;;;22.15;49.47
79415;BME280;68864;44.972;19.612;2023-10-19T10:51:18;99788.50;;;22.12;49.94
79415;BME280;68864;44.972;19.612;2023-10-19T10:53:53;99769.25;;;21.94;50.30
79415;BME280;68864;44.972;19.612;2023-10-19T10:56:22;99757.75;;;21.76;50.39
79415;BME280;68864;44.972;19.612;2023-10-19T10:58:49;99761.91;;;21.84;50.03
79415;BME280;68864;44.972;19.612;2023-10-19T11:01:28;99749.69;;;21.74;50.29
79415;BME280;68864;44.972;19.612;2023-10-19T11:04:05;99747.44;;;21.69;51.24
79415;BME280;68864;44.972;19.612;2023-10-19T11:06:32;99754.91;;;21.76;50.64
79415;BME280;68864;44.972;19.612;2023-10-19T11:08:58;99753.66;;;21.77;50.53
79415;BME280;68864;44.972;19.612;2023-10-19T11:11:38;99753.72;;;21.99;50.23
79415;BME280;68864;44.972;19.612;2023-10-19T11:14:11;99761.09;;;22.18;50.19
79415;BME280;68864;44.972;19.612;2023-10-19T11:16:38;99765.84;;;22.43;49.08
79415;BME280;68864;44.972;19.612;2023-10-19T11:19:05;99759.31;;;22.33;48.48
79415;BME280;68864;44.972;19.612;2023-10-19T11:21:32;99769.09;;;22.32;48.79
79415;BME280;68864;44.972;19.612;2023-10-19T11:24:00;99755.34;;;22.31;48.27
79415;BME280;68864;44.972;19.612;2023-10-19T11:26:27;99750.13;;;22.29;48.06
79415;BME280;68864;44.972;19.612;2023-10-19T11:28:59;99758.38;;;22.36;48.20
79415;BME280;68864;44.972;19.612;2023-10-19T11:31:29;99750.53;;;22.71;47.72
79415;BME280;68864;44.972;19.612;2023-10-19T11:34:03;99714.44;;;22.81;46.62
79415;BME280;68864;44.972;19.612;2023-10-19T11:36:30;99745.16;;;23.04;46.54
79415;BME280;68864;44.972;19.612;2023-10-19T11:38:57;99738.84;;;23.00;46.96
79415;BME280;68864;44.972;19.612;2023-10-19T11:41:24;99751.47;;;22.99;46.98
79415;BME280;68864;44.972;19.612;2023-10-19T11:43:51;99739.72;;;22.88;46.99
79415;BME280;68864;44.972;19.612;2023-10-19T11:46:19;99733.16;;;22.69;47.28
79415;BME280;68864;44.972;19.612;2023-10-19T11:48:48;99734.56;;;22.65;47.96
79415;BME280;68864;44.972;19.612;2023-10-19T11:51:15;99737.69;;;22.57;48.54
79415;BME280;68864;44.972;19.612;2023-10-19T11:53:42;99730.34;;;22.47;49.60
79415;BME280;68864;44.972;19.612;2023-10-19T11:56:10;99698.38;;;22.25;48.91
79415;BME280;68864;44.972;19.612;2023-10-19T11:58:38;99717.38;;;22.37;50.17
79415;BME280;68864;44.972;19.612;2023-10-19T12:01:09;99717.78;;;22.27;50.08
79415;BME280;68864;44.972;19.612;2023-10-19T12:03:39;99717.84;;;22.14;50.34
79415;BME280;68864;44.972;19.612;2023-10-19T12:06:06;99706.97;;;22.12;50.59
79415;BME280;68864;44.972;19.612;2023-10-19T12:08:33;99701.13;;;21.94;51.38
79415;BME280;68864;44.972;19.612;2023-10-19T12:11:00;99709.63;;;22.07;50.99
79415;BME280;68864;44.972;19.612;2023-10-19T12:13:29;99715.56;;;22.00;50.80
79415;BME280;68864;44.972;19.612;2023-10-19T12:15:56;99710.19;;;21.80;51.75
79415;BME280;68864;44.972;19.612;2023-10-19T12:18:23;99703.25;;;21.81;52.01
79415;BME280;68864;44.972;19.612;2023-10-19T12:20:52;99703.66;;;21.70;52.59
79415;BME280;68864;44.972;19.612;2023-10-19T12:23:22;99685.72;;;21.73;52.34
79415;BME280;68864;44.972;19.612;2023-10-19T12:25:49;99681.22;;;21.85;51.96
79415;BME280;68864;44.972;19.612;2023-10-19T12:28:16;99669.88;;;21.85;52.35
79415;BME280;68864;44.972;19.612;2023-10-19T12:30:43;99667.38;;;21.87;53.28
79415;BME280;68864;44.972;19.612;2023-10-19T12:33:10;99663.41;;;21.85;52.09
79415;BME280;68864;44.972;19.612;2023-10-19T12:35:38;99666.19;;;21.75;53.00
79415;BME280;68864;44.972;19.612;2023-10-19T12:38:16;99661.31;;;21.76;53.38
79415;BME280;68864;44.972;19.612;2023-10-19T12:40:44;99659.72;;;21.75;53.45
79415;BME280;68864;44.972;19.612;2023-10-19T12:43:12;99664.47;;;21.78;53.25
79415;BME280;68864;44.972;19.612;2023-10-19T12:45:39;99654.91;;;21.85;53.54
79415;BME280;68864;44.972;19.612;2023-10-19T12:48:07;99649.88;;;21.89;53.97
79415;BME280;68864;44.972;19.612;2023-10-19T12:50:37;99659.44;;;21.82;53.65
79415;BME280;68864;44.972;19.612;2023-10-19T12:53:04;99652.97;;;21.81;53.43